createdAt,value
2022-09-22T00:01:06.395Z,21.60
2022-09-22T00:03:37.882Z,21.60
2022-09-22T00:06:08.675Z,21.60
2022-09-22T00:08:36.508Z,21.60
2022-09-22T00:11:03.624Z,21.60
2022-09-22T00:13:31.157Z,21.60
2022-09-22T00:15:58.171Z,21.60
2022-09-22T00:18:24.968Z,21.60
2022-09-22T00:20:51.720Z,21.60
2022-09-22T00:23:18.480Z,21.60
2022-09-22T00:25:45.148Z,21.60
2022-09-22T00:28:13.149Z,21.60
2022-09-22T00:30:41.001Z,21.60
2022-09-22T00:33:08.332Z,21.60
2022-09-22T00:35:38.195Z,21.50
2022-09-22T00:38:08.174Z,21.50
2022-09-22T00:40:35.489Z,21.60
2022-09-22T00:43:12.841Z,21.60
2022-09-22T00:45:39.590Z,21.50
2022-09-22T00:48:06.449Z,21.50
2022-09-22T00:50:33.333Z,21.50
2022-09-22T00:53:03.560Z,21.50
2022-09-22T00:55:35.005Z,21.50
2022-09-22T00:58:02.753Z,21.60
2022-09-22T01:00:29.514Z,21.60
2022-09-22T01:02:57.876Z,21.50
2022-09-22T01:05:26.119Z,21.60
2022-09-22T01:07:54.456Z,21.60
2022-09-22T01:10:21.332Z,21.60
2022-09-22T01:13:08.265Z,21.60
2022-09-22T01:15:48.472Z,21.60
2022-09-22T01:18:21.203Z,21.60
2022-09-22T01:21:10.502Z,21.60
2022-09-22T01:23:52.178Z,21.60
2022-09-22T01:26:24.946Z,21.60
2022-09-22T01:28:57.706Z,21.50
2022-09-22T01:31:43.365Z,21.60
2022-09-22T01:34:22.644Z,21.60
2022-09-22T01:37:19.072Z,21.50
2022-09-22T01:39:50.851Z,21.60
2022-09-22T01:42:21.952Z,21.50
2022-09-22T01:44:49.218Z,21.60
2022-09-22T01:47:19.591Z,21.60
2022-09-22T01:49:49.705Z,21.60
2022-09-22T01:52:20.808Z,21.60
2022-09-22T01:54:53.222Z,21.60
2022-09-22T01:57:23.122Z,21.60
2022-09-22T01:59:52.828Z,21.60
2022-09-22T02:02:31.901Z,21.60
2022-09-22T02:05:00.625Z,21.60
2022-09-22T02:07:31.087Z,21.60
2022-09-22T02:09:59.675Z,21.60
2022-09-22T02:12:26.488Z,21.50
2022-09-22T02:14:53.368Z,21.50
2022-09-22T02:17:20.353Z,21.50
2022-09-22T02:19:47.477Z,21.50
2022-09-22T02:22:14.184Z,21.50
2022-09-22T02:24:42.080Z,21.50
2022-09-22T02:27:19.900Z,21.60
2022-09-22T02:29:49.363Z,21.50
2022-09-22T02:32:16.967Z,21.50
2022-09-22T02:34:45.765Z,21.50
2022-09-22T02:37:18.338Z,21.50
2022-09-22T02:39:44.977Z,21.50
2022-09-22T02:42:33.123Z,21.50
2022-09-22T02:45:00.217Z,21.50
2022-09-22T02:47:32.497Z,21.50
2022-09-22T02:50:00.215Z,21.50
2022-09-22T02:52:26.982Z,21.60
2022-09-22T02:54:53.896Z,21.50
2022-09-22T02:57:21.032Z,21.50
2022-09-22T02:59:47.729Z,21.50
2022-09-22T03:02:14.439Z,21.50
2022-09-22T03:04:41.209Z,21.50
2022-09-22T03:07:08.007Z,21.50
2022-09-22T03:09:34.712Z,21.40
2022-09-22T03:12:01.657Z,21.50
2022-09-22T03:14:28.369Z,21.40
2022-09-22T03:16:55.111Z,21.40
2022-09-22T03:19:21.898Z,21.40
2022-09-22T03:21:48.601Z,21.50
2022-09-22T03:24:15.315Z,21.50
2022-09-22T03:26:42.110Z,21.50
2022-09-22T03:29:08.917Z,21.50
2022-09-22T03:31:35.705Z,21.40
2022-09-22T03:34:02.455Z,21.50
2022-09-22T03:36:29.200Z,21.40
2022-09-22T03:38:55.995Z,21.50
2022-09-22T03:41:22.765Z,21.50
2022-09-22T03:43:49.475Z,21.50
2022-09-22T03:46:16.256Z,21.50
2022-09-22T03:48:45.197Z,21.50
2022-09-22T03:51:12.265Z,21.50
2022-09-22T03:53:39.096Z,21.50
2022-09-22T03:56:07.229Z,21.50
2022-09-22T03:58:34.059Z,21.50
2022-09-22T04:01:00.822Z,21.50
2022-09-22T04:03:27.880Z,21.50
2022-09-22T04:05:54.644Z,21.50
2022-09-22T04:08:21.366Z,21.50
2022-09-22T04:10:48.058Z,21.50
2022-09-22T04:13:14.771Z,21.50
2022-09-22T04:15:41.831Z,21.50
2022-09-22T04:18:08.831Z,21.50
2022-09-22T04:20:43.345Z,21.50
2022-09-22T04:23:10.571Z,21.50
2022-09-22T04:25:37.291Z,21.50
2022-09-22T04:28:05.691Z,21.40
2022-09-22T04:30:33.341Z,21.40
2022-09-22T04:33:00.475Z,21.40
2022-09-22T04:35:28.442Z,21.40
2022-09-22T04:37:55.777Z,21.40
2022-09-22T04:40:23.222Z,21.40
2022-09-22T04:42:50.270Z,21.50
2022-09-22T04:45:17.343Z,21.50
2022-09-22T04:47:44.680Z,21.50
2022-09-22T04:50:11.641Z,21.50
2022-09-22T04:52:38.523Z,21.40
2022-09-22T04:55:05.615Z,21.40
2022-09-22T04:57:32.300Z,21.40
2022-09-22T04:59:59.052Z,21.40
2022-09-22T05:02:25.708Z,21.40
2022-09-22T05:04:52.368Z,21.40
2022-09-22T05:07:19.106Z,21.50
2022-09-22T05:09:46.135Z,21.40
2022-09-22T05:12:12.797Z,21.40
2022-09-22T05:14:39.616Z,21.40
2022-09-22T05:17:06.406Z,21.40
2022-09-22T05:19:33.093Z,21.40
2022-09-22T05:22:00.336Z,21.40
2022-09-22T05:24:27.221Z,21.40
2022-09-22T05:26:54.175Z,21.40
2022-09-22T05:29:23.596Z,21.40
2022-09-22T05:31:53.874Z,21.50
2022-09-22T05:34:20.633Z,21.50
2022-09-22T05:36:47.319Z,21.40
2022-09-22T05:39:14.035Z,21.50
2022-09-22T05:41:40.769Z,21.40
2022-09-22T05:44:07.444Z,21.50
2022-09-22T05:46:34.184Z,21.50
2022-09-22T05:49:00.977Z,21.50
2022-09-22T05:51:27.664Z,21.50
2022-09-22T05:53:54.379Z,21.50
2022-09-22T05:56:21.265Z,21.50
2022-09-22T05:58:47.983Z,21.50
2022-09-22T06:01:15.040Z,21.50
2022-09-22T06:03:41.869Z,21.50
2022-09-22T06:06:08.578Z,21.50
2022-09-22T06:08:35.293Z,21.50
2022-09-22T06:11:02.181Z,21.50
2022-09-22T06:13:30.010Z,21.50
2022-09-22T06:15:56.729Z,21.60
2022-09-22T06:18:26.844Z,21.60
2022-09-22T06:20:56.141Z,21.60
2022-09-22T06:23:23.387Z,21.50
2022-09-22T06:25:50.250Z,21.60
2022-09-22T06:28:16.986Z,21.60
2022-09-22T06:30:43.677Z,21.70
2022-09-22T06:33:10.887Z,21.70
2022-09-22T06:35:38.071Z,21.70
2022-09-22T06:38:06.375Z,21.60
2022-09-22T06:40:35.390Z,21.60
2022-09-22T06:43:07.649Z,21.60
2022-09-22T06:45:34.595Z,21.60
2022-09-22T06:48:03.454Z,21.60
2022-09-22T06:50:33.117Z,21.70
2022-09-22T06:53:00.563Z,21.70
2022-09-22T06:55:28.078Z,21.70
2022-09-22T06:57:55.902Z,21.70
2022-09-22T07:00:23.057Z,21.70
2022-09-22T07:02:49.739Z,21.70
2022-09-22T07:05:19.963Z,21.70
2022-09-22T07:07:46.799Z,21.80
2022-09-22T07:10:13.482Z,21.70
2022-09-22T07:12:40.204Z,21.80
2022-09-22T07:15:07.817Z,21.80
2022-09-22T07:17:35.994Z,21.80
2022-09-22T07:20:02.713Z,21.80
2022-09-22T07:22:29.499Z,21.80
2022-09-22T07:24:56.154Z,21.80
2022-09-22T07:27:25.980Z,21.80
2022-09-22T07:29:54.356Z,21.80
2022-09-22T07:32:22.074Z,21.80
2022-09-22T07:34:49.322Z,21.80
2022-09-22T07:37:16.096Z,21.80
2022-09-22T07:39:45.747Z,21.90
2022-09-22T07:42:12.617Z,21.90
2022-09-22T07:44:57.787Z,21.80
2022-09-22T07:47:42.909Z,21.90
2022-09-22T07:50:09.800Z,21.90
2022-09-22T07:52:36.518Z,21.80
2022-09-22T07:55:03.857Z,21.90
2022-09-22T07:57:31.823Z,21.90
2022-09-22T07:59:59.425Z,21.90
2022-09-22T08:02:29.172Z,21.90
2022-09-22T08:05:02.617Z,21.90
2022-09-22T08:07:31.484Z,21.90
2022-09-22T08:09:58.465Z,21.90
2022-09-22T08:12:25.644Z,21.90
2022-09-22T08:14:53.440Z,21.80
2022-09-22T08:17:20.203Z,21.90
2022-09-22T08:19:47.065Z,21.90
2022-09-22T08:22:13.785Z,21.80
2022-09-22T08:24:40.488Z,21.90
2022-09-22T08:27:07.237Z,21.90
2022-09-22T08:29:33.912Z,21.90
2022-09-22T08:32:00.594Z,21.90
2022-09-22T08:34:27.427Z,21.90
2022-09-22T08:36:55.818Z,21.90
2022-09-22T08:39:22.508Z,21.90
2022-09-22T08:42:09.726Z,21.90
2022-09-22T08:44:58.069Z,21.90
2022-09-22T08:47:58.188Z,22.00
2022-09-22T08:50:49.508Z,21.90
2022-09-22T08:53:18.748Z,21.90
2022-09-22T08:55:49.601Z,21.90
2022-09-22T08:58:36.889Z,21.90
2022-09-22T09:01:22.236Z,22.00
2022-09-22T09:03:52.130Z,21.90
2022-09-22T09:06:18.766Z,21.90
2022-09-22T09:09:05.047Z,22.00
2022-09-22T09:11:38.951Z,22.00
2022-09-22T09:14:24.604Z,22.00
2022-09-22T09:16:51.600Z,21.90
2022-09-22T09:19:24.387Z,21.90
2022-09-22T09:21:52.024Z,21.90
2022-09-22T09:27:19.802Z,21.90
2022-09-22T09:30:06.908Z,22.00
2022-09-22T09:32:34.519Z,21.90
2022-09-22T09:35:02.674Z,21.90
2022-09-22T09:37:29.916Z,21.90
2022-09-22T09:39:56.954Z,22.00
2022-09-22T09:42:34.980Z,22.00
2022-09-22T09:45:02.869Z,22.00
2022-09-22T09:47:32.695Z,22.10
2022-09-22T09:49:59.881Z,22.10
2022-09-22T09:52:27.796Z,22.10
2022-09-22T09:54:54.588Z,22.20
2022-09-22T09:57:27.555Z,22.20
2022-09-22T10:00:31.811Z,22.20
2022-09-22T10:03:04.643Z,22.20
2022-09-22T10:05:32.551Z,22.10
2022-09-22T10:08:23.715Z,22.10
2022-09-22T10:10:54.930Z,22.10
2022-09-22T10:13:29.655Z,22.00
2022-09-22T10:16:04.642Z,22.10
2022-09-22T10:18:34.245Z,22.00
2022-09-22T10:21:04.051Z,22.00
2022-09-22T10:23:32.629Z,22.00
2022-09-22T10:26:17.335Z,21.90
2022-09-22T10:28:44.508Z,21.90
2022-09-22T10:31:19.311Z,21.90
2022-09-22T10:33:59.062Z,21.90
2022-09-22T10:36:27.957Z,21.90
2022-09-22T10:38:58.874Z,21.90
2022-09-22T10:41:30.904Z,21.90
2022-09-22T10:44:06.358Z,21.80
2022-09-22T10:46:50.010Z,21.80
2022-09-22T10:49:35.609Z,21.80
2022-09-22T10:52:02.307Z,21.80
2022-09-22T10:54:36.297Z,21.90
2022-09-22T10:57:10.213Z,21.90
2022-09-22T10:59:48.655Z,21.80
2022-09-22T11:02:18.475Z,21.80
2022-09-22T11:05:03.891Z,21.80
2022-09-22T11:08:07.688Z,21.80
2022-09-22T11:11:14.164Z,21.80
2022-09-22T11:13:47.016Z,21.70
2022-09-22T11:16:22.654Z,21.70
2022-09-22T11:19:15.537Z,21.60
2022-09-22T11:21:51.457Z,21.70
2022-09-22T11:24:27.549Z,21.70
2022-09-22T11:26:55.194Z,21.70
2022-09-22T11:29:22.192Z,21.70
2022-09-22T11:31:54.520Z,21.70
2022-09-22T11:34:30.264Z,21.70
2022-09-22T11:36:56.983Z,21.60
2022-09-22T11:39:29.386Z,21.70
2022-09-22T11:42:01.996Z,21.70
2022-09-22T11:45:04.170Z,21.70
2022-09-22T11:47:30.894Z,21.70
2022-09-22T11:50:16.394Z,21.70
2022-09-22T11:52:59.077Z,21.70
2022-09-22T11:55:44.275Z,21.70
2022-09-22T11:58:21.722Z,21.70
2022-09-22T12:01:12.340Z,21.60
2022-09-22T12:03:52.132Z,21.60
2022-09-22T12:06:21.382Z,21.60
2022-09-22T12:11:26.276Z,21.50
2022-09-22T12:13:53.973Z,21.60
2022-09-22T12:16:20.699Z,21.70
2022-09-22T12:18:50.559Z,21.70
2022-09-22T12:21:17.318Z,21.70
2022-09-22T12:23:47.701Z,21.70
2022-09-22T12:26:28.640Z,21.70
2022-09-22T12:28:55.768Z,21.60
2022-09-22T12:31:31.755Z,21.60
2022-09-22T12:33:58.991Z,21.50
2022-09-22T12:36:29.965Z,21.60
2022-09-22T12:39:11.730Z,21.60
2022-09-22T12:41:48.128Z,21.60
2022-09-22T12:44:25.212Z,21.60
2022-09-22T12:46:54.540Z,21.60
2022-09-22T12:49:22.856Z,21.70
2022-09-22T12:51:50.497Z,21.60
2022-09-22T12:54:23.013Z,21.60
2022-09-22T12:57:00.142Z,21.50
2022-09-22T12:59:35.972Z,21.50
2022-09-22T13:02:13.621Z,21.60
2022-09-22T13:04:40.360Z,21.70
2022-09-22T13:07:25.939Z,21.70
2022-09-22T13:10:11.094Z,21.60
2022-09-22T13:12:37.860Z,21.70
2022-09-22T13:15:07.336Z,21.60
2022-09-22T13:17:37.095Z,21.60
2022-09-22T13:20:24.062Z,21.60
2022-09-22T13:22:51.954Z,21.60
2022-09-22T13:25:21.691Z,21.60
2022-09-22T13:27:48.681Z,21.60
2022-09-22T13:30:15.604Z,21.60
2022-09-22T13:32:49.764Z,21.60
2022-09-22T13:35:26.530Z,21.70
2022-09-22T13:37:55.824Z,21.70
2022-09-22T13:40:25.248Z,21.60
2022-09-22T13:42:52.299Z,21.60
2022-09-22T13:45:21.506Z,21.60
2022-09-22T13:47:48.463Z,21.70
2022-09-22T13:50:19.245Z,21.60
2022-09-22T13:52:48.907Z,21.70
2022-09-22T13:55:24.378Z,21.60
2022-09-22T13:57:51.953Z,21.60
2022-09-22T14:00:24.680Z,21.60
2022-09-22T14:02:52.363Z,21.60
2022-09-22T14:05:21.260Z,21.60
2022-09-22T14:08:07.865Z,21.70
2022-09-22T14:10:35.456Z,21.60
2022-09-22T14:13:02.157Z,21.60
2022-09-22T14:15:33.030Z,21.60
2022-09-22T14:18:00.205Z,21.60
2022-09-22T14:20:27.442Z,21.60
2022-09-22T14:22:54.513Z,21.60
2022-09-22T14:25:23.119Z,21.60
2022-09-22T14:27:53.712Z,21.60
2022-09-22T14:30:20.422Z,21.60
2022-09-22T14:32:52.220Z,21.60
2022-09-22T14:35:38.297Z,21.60
2022-09-22T14:38:15.651Z,21.50
2022-09-22T14:40:54.657Z,21.60
2022-09-22T14:43:42.149Z,21.60
2022-09-22T14:46:24.199Z,21.50
2022-09-22T14:48:51.410Z,21.60
2022-09-22T14:51:21.987Z,21.60
2022-09-22T14:53:57.796Z,21.60
2022-09-22T14:56:28.255Z,21.50
2022-09-22T14:58:56.107Z,21.50
2022-09-22T15:01:45.206Z,21.60
2022-09-22T15:04:23.084Z,21.60
2022-09-22T15:06:51.280Z,21.60
2022-09-22T15:09:26.577Z,21.60
2022-09-22T15:12:00.711Z,21.50
2022-09-22T15:14:30.800Z,21.60
2022-09-22T15:17:17.573Z,21.60
2022-09-22T15:19:44.284Z,21.50
2022-09-22T15:22:13.626Z,21.50
2022-09-22T15:24:40.549Z,21.50
2022-09-22T15:27:08.035Z,21.50
2022-09-22T15:29:34.808Z,21.50
2022-09-22T15:32:04.483Z,21.60
2022-09-22T15:34:31.160Z,21.50
2022-09-22T15:36:57.930Z,21.60
2022-09-22T15:39:24.777Z,21.50
2022-09-22T15:41:52.266Z,21.50
2022-09-22T15:44:19.070Z,21.50
2022-09-22T15:46:48.806Z,21.50
2022-09-22T15:49:21.021Z,21.50
2022-09-22T15:51:49.523Z,21.60
2022-09-22T15:54:17.956Z,21.50
2022-09-22T15:56:45.753Z,21.50
2022-09-22T15:59:16.469Z,21.50
2022-09-22T16:01:45.242Z,21.50
2022-09-22T16:04:12.649Z,21.50
2022-09-22T16:06:40.727Z,21.50
2022-09-22T16:09:07.655Z,21.50
2022-09-22T16:11:34.378Z,21.50
2022-09-22T16:14:03.702Z,21.50
2022-09-22T16:16:32.363Z,21.50
2022-09-22T16:18:59.374Z,21.50
2022-09-22T16:21:29.868Z,21.60
2022-09-22T16:24:04.835Z,21.60
2022-09-22T16:26:31.875Z,21.60
2022-09-22T16:28:58.994Z,21.60
2022-09-22T16:31:26.028Z,21.60
2022-09-22T16:33:56.578Z,21.60
2022-09-22T16:36:24.387Z,21.50
2022-09-22T16:38:51.105Z,21.60
2022-09-22T16:41:22.649Z,21.50
2022-09-22T16:43:49.371Z,21.60
2022-09-22T16:46:28.319Z,21.60
2022-09-22T16:48:55.193Z,21.60
2022-09-22T16:51:22.014Z,21.60
2022-09-22T16:53:52.901Z,21.60
2022-09-22T16:56:20.980Z,21.50
2022-09-22T16:58:47.766Z,21.50
2022-09-22T17:01:19.801Z,21.60
2022-09-22T17:03:49.375Z,21.50
2022-09-22T17:06:17.138Z,21.50
2022-09-22T17:08:46.772Z,21.50
2022-09-22T17:11:14.215Z,21.60
2022-09-22T17:13:43.454Z,21.60
2022-09-22T17:16:24.591Z,21.50
2022-09-22T17:18:52.274Z,21.50
2022-09-22T17:21:21.922Z,21.50
2022-09-22T17:23:52.257Z,21.50
2022-09-22T17:26:21.340Z,21.50
2022-09-22T17:28:50.449Z,21.50
2022-09-22T17:31:17.246Z,21.50
2022-09-22T17:33:51.997Z,21.50
2022-09-22T17:36:22.558Z,21.50
2022-09-22T17:38:50.813Z,21.60
2022-09-22T17:41:19.796Z,21.50
2022-09-22T17:43:48.199Z,21.50
2022-09-22T17:46:16.558Z,21.50
2022-09-22T17:49:02.577Z,21.50
2022-09-22T17:51:53.626Z,21.50
2022-09-22T17:54:38.775Z,21.50
2022-09-22T17:57:05.907Z,21.50
2022-09-22T17:59:33.707Z,21.50
2022-09-22T18:02:01.078Z,21.50
2022-09-22T18:04:28.063Z,21.50
2022-09-22T18:06:54.803Z,21.50
2022-09-22T18:09:21.757Z,21.50
2022-09-22T18:11:48.535Z,21.50
2022-09-22T18:14:15.366Z,21.50
2022-09-22T18:16:42.576Z,21.50
2022-09-22T18:19:09.749Z,21.50
2022-09-22T18:21:39.263Z,21.50
2022-09-22T18:24:07.016Z,21.50
2022-09-22T18:26:38.177Z,21.50
2022-09-22T18:29:09.998Z,21.50
2022-09-22T18:31:37.301Z,21.50
2022-09-22T18:34:07.340Z,21.50
2022-09-22T18:36:34.722Z,21.50
2022-09-22T18:39:01.583Z,21.50
2022-09-22T18:41:28.877Z,21.50
2022-09-22T18:43:55.652Z,21.50
2022-09-22T18:46:22.503Z,21.50
2022-09-22T18:48:53.899Z,21.50
2022-09-22T18:51:20.661Z,21.50
2022-09-22T18:53:47.379Z,21.60
2022-09-22T18:56:16.697Z,21.50
2022-09-22T18:58:43.727Z,21.60
2022-09-22T19:01:13.856Z,21.50
2022-09-22T19:03:41.422Z,21.50
2022-09-22T19:06:08.270Z,21.50
2022-09-22T19:08:35.017Z,21.50
2022-09-22T19:11:01.689Z,21.60
2022-09-22T19:13:28.739Z,21.50
2022-09-22T19:15:58.068Z,21.50
2022-09-22T19:18:24.913Z,21.50
2022-09-22T19:20:51.700Z,21.50
2022-09-22T19:23:18.806Z,21.50
2022-09-22T19:25:46.152Z,21.50
2022-09-22T19:28:13.233Z,21.50
2022-09-22T19:30:40.137Z,21.50
2022-09-22T19:33:07.149Z,21.50
2022-09-22T19:35:38.915Z,21.50
2022-09-22T19:38:06.201Z,21.50
2022-09-22T19:40:34.051Z,21.50
2022-09-22T19:43:03.481Z,21.50
2022-09-22T19:45:30.471Z,21.50
2022-09-22T19:47:58.182Z,21.50
2022-09-22T19:50:25.342Z,21.50
2022-09-22T19:52:52.519Z,21.50
2022-09-22T19:55:21.143Z,21.60
2022-09-22T19:57:48.641Z,21.50
2022-09-22T20:00:17.683Z,21.50
2022-09-22T20:02:44.916Z,21.50
2022-09-22T20:05:19.228Z,21.60
2022-09-22T20:07:46.129Z,21.60
2022-09-22T20:10:13.498Z,21.60
2022-09-22T20:12:40.826Z,21.50
2022-09-22T20:15:07.814Z,21.60
2022-09-22T20:17:34.550Z,21.50
2022-09-22T20:20:01.893Z,21.50
2022-09-22T20:22:30.574Z,21.50
2022-09-22T20:24:59.455Z,21.50
2022-09-22T20:27:27.928Z,21.50
2022-09-22T20:29:57.457Z,21.50
2022-09-22T20:32:28.434Z,21.50
2022-09-22T20:34:55.825Z,21.50
2022-09-22T20:37:23.101Z,21.50
2022-09-22T20:39:49.794Z,21.50
2022-09-22T20:42:17.596Z,21.50
2022-09-22T20:44:44.459Z,21.50
2022-09-22T20:47:15.155Z,21.50
2022-09-22T20:49:42.203Z,21.50
2022-09-22T20:52:12.659Z,21.50
2022-09-22T20:54:39.361Z,21.50
2022-09-22T20:57:06.067Z,21.50
2022-09-22T20:59:33.434Z,21.40
2022-09-22T21:02:00.871Z,21.50
2022-09-22T21:04:28.275Z,21.50
2022-09-22T21:06:55.518Z,21.50
2022-09-22T21:09:42.539Z,21.50
2022-09-22T21:12:09.282Z,21.40
2022-09-22T21:14:35.955Z,21.50
2022-09-22T21:17:06.882Z,21.50
2022-09-22T21:19:34.507Z,21.50
2022-09-22T21:22:01.237Z,21.50
2022-09-22T21:24:28.090Z,21.40
2022-09-22T21:26:54.861Z,21.50
2022-09-22T21:29:21.871Z,21.50
2022-09-22T21:31:49.898Z,21.50
2022-09-22T21:34:16.986Z,21.50
2022-09-22T21:36:43.918Z,21.50
2022-09-22T21:39:10.774Z,21.50
2022-09-22T21:41:37.482Z,21.50
2022-09-22T21:44:07.330Z,21.50
2022-09-22T21:46:37.247Z,21.50
2022-09-22T21:49:04.198Z,21.50
2022-09-22T21:51:34.524Z,21.50
2022-09-22T21:54:03.125Z,21.50
2022-09-22T21:56:30.374Z,21.40
2022-09-22T21:58:57.505Z,21.50
2022-09-22T22:01:25.715Z,21.50
2022-09-22T22:03:53.439Z,21.50
2022-09-22T22:06:20.211Z,21.50
2022-09-22T22:08:48.409Z,21.50
2022-09-22T22:11:16.419Z,21.40
2022-09-22T22:13:43.754Z,21.40
2022-09-22T22:16:11.829Z,21.50
2022-09-22T22:18:38.628Z,21.50
2022-09-22T22:21:06.566Z,21.50
2022-09-22T22:23:38.450Z,21.50
2022-09-22T22:26:07.651Z,21.50
2022-09-22T22:28:34.931Z,21.50
2022-09-22T22:31:06.150Z,21.50
2022-09-22T22:33:34.062Z,21.50
2022-09-22T22:36:02.604Z,21.40
2022-09-22T22:38:32.272Z,21.50
2022-09-22T22:41:03.638Z,21.50
2022-09-22T22:43:30.509Z,21.50
2022-09-22T22:45:58.206Z,21.50
2022-09-22T22:48:26.272Z,21.50
2022-09-22T22:50:53.759Z,21.50
2022-09-22T22:53:21.302Z,21.50
2022-09-22T22:55:54.403Z,21.50
2022-09-22T22:58:21.345Z,21.50
2022-09-22T23:00:48.086Z,21.50
2022-09-22T23:03:14.796Z,21.50
2022-09-22T23:05:43.071Z,21.50
2022-09-22T23:08:10.014Z,21.50
2022-09-22T23:10:36.950Z,21.40
2022-09-22T23:13:04.046Z,21.50
2022-09-22T23:15:30.911Z,21.50
2022-09-22T23:17:58.365Z,21.40
2022-09-22T23:20:25.911Z,21.50
2022-09-22T23:22:52.726Z,21.50
2022-09-22T23:25:19.427Z,21.50
2022-09-22T23:27:49.655Z,21.50
2022-09-22T23:30:16.638Z,21.50
2022-09-22T23:32:43.798Z,21.40
2022-09-22T23:35:10.839Z,21.40
2022-09-22T23:37:37.541Z,21.40
2022-09-22T23:40:04.741Z,21.40
2022-09-22T23:42:31.657Z,21.40
2022-09-22T23:44:58.414Z,21.40
2022-09-22T23:47:25.144Z,21.40
2022-09-22T23:49:51.869Z,21.40
2022-09-22T23:52:18.579Z,21.40
2022-09-22T23:54:45.535Z,21.40
2022-09-22T23:57:12.445Z,21.40
2022-09-22T23:59:39.135Z,21.40
